createdAt,value
2018-03-27T00:00:33.979Z,6.70
2018-03-27T00:03:01.539Z,6.70
2018-03-27T00:05:29.788Z,6.80
2018-03-27T00:07:57.428Z,6.80
2018-03-27T00:10:25.072Z,6.70
2018-03-27T00:12:52.654Z,6.70
2018-03-27T00:15:20.430Z,6.70
2018-03-27T00:17:50.795Z,6.70
2018-03-27T00:20:18.566Z,6.60
2018-03-27T00:22:46.958Z,6.70
2018-03-27T00:25:15.295Z,6.70
2018-03-27T00:27:55.253Z,6.70
2018-03-27T00:30:34.589Z,6.70
2018-03-27T00:33:14.887Z,6.70
2018-03-27T00:35:56.430Z,6.70
2018-03-27T00:38:35.979Z,6.70
2018-03-27T00:41:03.676Z,6.70
2018-03-27T00:43:31.299Z,6.80
2018-03-27T00:46:00.907Z,6.80
2018-03-27T00:48:28.527Z,6.70
2018-03-27T00:50:56.460Z,6.80
2018-03-27T00:53:24.888Z,6.80
2018-03-27T00:55:53.374Z,6.80
2018-03-27T00:58:22.235Z,6.80
2018-03-27T01:00:54.662Z,6.80
2018-03-27T01:03:24.211Z,6.80
2018-03-27T01:05:52.820Z,6.80
2018-03-27T01:08:20.452Z,6.80
2018-03-27T01:10:49.322Z,6.90
2018-03-27T01:13:16.966Z,6.90
2018-03-27T01:15:44.852Z,6.90
2018-03-27T01:18:12.463Z,6.90
2018-03-27T01:20:40.081Z,6.90
2018-03-27T01:23:07.780Z,6.90
2018-03-27T01:25:37.179Z,6.90
2018-03-27T01:28:05.556Z,6.90
2018-03-27T01:30:33.879Z,6.90
2018-03-27T01:33:02.438Z,6.90
2018-03-27T01:35:30.545Z,6.90
2018-03-27T01:37:58.210Z,6.90
2018-03-27T01:40:26.557Z,6.90
2018-03-27T01:42:54.696Z,6.90
2018-03-27T01:45:23.130Z,6.90
2018-03-27T01:47:52.143Z,6.90
2018-03-27T01:50:21.217Z,6.80
2018-03-27T01:52:48.850Z,6.80
2018-03-27T01:55:17.512Z,6.80
2018-03-27T01:57:45.163Z,6.90
2018-03-27T02:00:13.527Z,6.90
2018-03-27T02:02:44.089Z,7.00
2018-03-27T02:05:12.538Z,6.90
2018-03-27T02:07:40.164Z,6.90
2018-03-27T02:10:10.780Z,6.90
2018-03-27T02:12:44.417Z,6.90
2018-03-27T02:15:18.613Z,6.90
2018-03-27T02:17:53.035Z,6.80
2018-03-27T02:20:29.557Z,6.80
2018-03-27T02:23:02.216Z,6.80
2018-03-27T02:25:29.868Z,6.80
2018-03-27T02:27:57.483Z,6.80
2018-03-27T02:30:26.171Z,6.90
2018-03-27T02:32:54.439Z,6.90
2018-03-27T02:35:24.351Z,6.90
2018-03-27T02:37:53.167Z,6.90
2018-03-27T02:40:22.220Z,6.90
2018-03-27T02:42:50.623Z,6.90
2018-03-27T02:45:18.509Z,6.90
2018-03-27T02:47:46.124Z,6.90
2018-03-27T02:50:13.719Z,6.90
2018-03-27T02:52:42.182Z,6.90
2018-03-27T02:55:09.816Z,6.80
2018-03-27T02:57:37.380Z,6.90
2018-03-27T03:00:06.772Z,6.70
2018-03-27T03:02:35.093Z,6.80
2018-03-27T03:05:05.753Z,6.70
2018-03-27T03:07:34.456Z,6.70
2018-03-27T03:10:03.325Z,6.70
2018-03-27T03:12:31.734Z,6.70
2018-03-27T03:15:00.244Z,6.60
2018-03-27T03:17:28.885Z,6.60
2018-03-27T03:19:56.704Z,6.70
2018-03-27T03:22:25.521Z,6.60
2018-03-27T03:24:54.750Z,6.50
2018-03-27T03:27:23.987Z,6.50
2018-03-27T03:29:56.102Z,6.50
2018-03-27T03:32:24.787Z,6.50
2018-03-27T03:34:54.651Z,6.50
2018-03-27T03:37:23.232Z,6.20
2018-03-27T03:39:54.660Z,6.40
2018-03-27T03:42:24.396Z,6.40
2018-03-27T03:44:54.387Z,6.40
2018-03-27T03:47:22.589Z,6.40
2018-03-27T04:27:47.432Z,6.10
2018-03-27T04:30:15.372Z,6.00
2018-03-27T04:32:43.924Z,6.10
2018-03-27T04:35:12.325Z,6.10
2018-03-27T04:37:40.676Z,5.90
2018-03-27T04:40:08.264Z,5.90
2018-03-27T04:42:35.936Z,6.00
2018-03-27T04:45:04.992Z,6.10
2018-03-27T04:47:32.737Z,6.00
2018-03-27T04:50:02.436Z,6.10
2018-03-27T04:52:31.823Z,6.10
2018-03-27T04:55:00.212Z,6.20
2018-03-27T04:57:27.822Z,6.00
2018-03-27T04:59:55.402Z,6.10
2018-03-27T05:02:23.026Z,6.00
2018-03-27T05:04:50.782Z,5.90
2018-03-27T05:07:19.410Z,5.90
2018-03-27T05:09:46.979Z,5.90
2018-03-27T05:12:15.702Z,5.90
2018-03-27T05:14:43.829Z,5.80
2018-03-27T05:17:12.684Z,6.00
2018-03-27T05:19:40.292Z,5.90
2018-03-27T05:22:07.854Z,5.80
2018-03-27T05:24:35.436Z,5.80
2018-03-27T05:27:03.818Z,5.80
2018-03-27T05:29:33.218Z,5.80
2018-03-27T05:32:00.807Z,5.80
2018-03-27T05:34:28.880Z,5.70
2018-03-27T05:36:57.228Z,5.80
2018-03-27T05:39:24.835Z,5.80
2018-03-27T05:41:52.477Z,5.80
2018-03-27T05:44:20.106Z,5.80
2018-03-27T05:46:47.688Z,5.80
2018-03-27T05:49:15.636Z,5.80
2018-03-27T05:51:43.914Z,5.90
2018-03-27T05:54:12.083Z,5.70
2018-03-27T05:56:40.103Z,5.80
2018-03-27T05:59:07.956Z,5.80
2018-03-27T06:01:37.391Z,5.70
2018-03-27T06:04:05.023Z,5.70
2018-03-27T06:06:32.775Z,5.70
2018-03-27T06:09:00.325Z,5.70
2018-03-27T06:11:27.961Z,5.80
2018-03-27T06:13:55.524Z,5.80
2018-03-27T06:16:25.136Z,5.70
2018-03-27T06:18:52.772Z,5.80
2018-03-27T06:21:20.358Z,5.70
2018-03-27T06:23:47.912Z,5.70
2018-03-27T06:26:16.382Z,5.60
2018-03-27T06:28:44.688Z,5.50
2018-03-27T06:31:12.716Z,5.50
2018-03-27T06:33:40.326Z,5.40
2018-03-27T06:36:08.675Z,5.40
2018-03-27T06:38:37.270Z,5.40
2018-03-27T06:41:05.700Z,5.40
2018-03-27T06:43:37.159Z,5.40
2018-03-27T06:46:04.768Z,5.50
2018-03-27T06:48:32.523Z,5.40
2018-03-27T06:51:01.114Z,5.40
2018-03-27T06:53:28.706Z,5.30
2018-03-27T06:55:56.434Z,5.30
2018-03-27T06:58:24.068Z,5.30
2018-03-27T07:00:52.786Z,5.20
2018-03-27T07:03:20.396Z,5.30
2018-03-27T07:05:48.264Z,5.30
2018-03-27T07:08:15.863Z,5.40
2018-03-27T07:10:44.219Z,5.40
2018-03-27T07:13:12.697Z,5.40
2018-03-27T07:15:40.260Z,5.40
2018-03-27T07:18:08.927Z,5.50
2018-03-27T07:20:36.547Z,5.40
2018-03-27T07:23:05.181Z,5.40
2018-03-27T07:25:33.639Z,5.50
2018-03-27T07:28:02.019Z,5.60
2018-03-27T07:30:29.586Z,5.60
2018-03-27T07:32:57.244Z,5.70
2018-03-27T07:35:24.922Z,5.80
2018-03-27T07:37:52.580Z,5.90
2018-03-27T07:40:21.277Z,6.10
2018-03-27T07:42:48.960Z,6.10
2018-03-27T07:45:17.719Z,6.20
2018-03-27T07:47:45.365Z,6.40
2018-03-27T07:50:13.655Z,6.60
2018-03-27T07:52:42.669Z,6.90
2018-03-27T07:55:10.311Z,6.90
2018-03-27T07:57:39.053Z,7.00
2018-03-27T08:00:07.402Z,7.20
2018-03-27T08:02:35.888Z,7.50
2018-03-27T08:05:04.256Z,7.80
2018-03-27T08:07:31.906Z,7.70
2018-03-27T08:09:59.526Z,8.10
2018-03-27T08:12:27.994Z,8.50
2018-03-27T08:14:55.568Z,8.40
2018-03-27T08:17:24.131Z,8.80
2018-03-27T08:19:51.788Z,8.80
2018-03-27T08:22:19.568Z,8.90
2018-03-27T08:24:48.276Z,9.00
2018-03-27T08:27:17.599Z,9.20
2018-03-27T08:29:45.210Z,9.20
2018-03-27T08:32:14.057Z,9.20
2018-03-27T08:34:42.293Z,9.20
2018-03-27T08:37:09.963Z,9.50
2018-03-27T08:39:38.357Z,10.30
2018-03-27T08:42:06.012Z,10.30
2018-03-27T08:44:33.674Z,10.80
2018-03-27T08:47:01.673Z,10.80
2018-03-27T08:49:29.283Z,10.70
2018-03-27T08:51:56.876Z,10.50
2018-03-27T08:54:25.908Z,10.70
2018-03-27T08:56:55.212Z,11.50
2018-03-27T08:59:24.493Z,11.70
2018-03-27T09:01:52.084Z,11.70
2018-03-27T09:04:19.669Z,12.00
2018-03-27T09:06:47.255Z,12.40
2018-03-27T09:09:14.867Z,12.70
2018-03-27T09:11:43.085Z,12.70
2018-03-27T09:14:12.689Z,12.10
2018-03-27T09:16:41.709Z,11.40
2018-03-27T09:19:09.452Z,11.30
2018-03-27T09:21:37.003Z,10.80
2018-03-27T09:24:04.593Z,10.40
2018-03-27T09:26:32.984Z,9.70
2018-03-27T09:29:00.677Z,9.70
2018-03-27T09:31:29.319Z,9.40
2018-03-27T09:33:56.893Z,9.50
2018-03-27T09:36:25.418Z,9.70
2018-03-27T09:38:52.975Z,9.90
2018-03-27T09:41:20.610Z,10.50
2018-03-27T09:43:48.337Z,11.70
2018-03-27T09:46:15.941Z,13.10
2018-03-27T09:48:43.980Z,13.60
2018-03-27T09:51:13.246Z,13.60
2018-03-27T09:53:40.812Z,12.80
2018-03-27T09:56:08.533Z,12.10
2018-03-27T09:58:36.092Z,11.80
2018-03-27T10:01:09.783Z,11.30
2018-03-27T10:03:38.415Z,11.30
2018-03-27T10:06:05.983Z,11.70
2018-03-27T10:08:34.724Z,13.70
2018-03-27T10:11:02.301Z,13.70
2018-03-27T10:13:30.615Z,15.90
2018-03-27T10:15:58.302Z,15.90
2018-03-27T10:18:26.652Z,17.50
2018-03-27T10:20:54.217Z,17.50
2018-03-27T10:23:21.849Z,17.90
2018-03-27T10:25:50.166Z,19.20
2018-03-27T10:28:17.747Z,19.20
2018-03-27T10:30:46.196Z,20.80
2018-03-27T10:33:13.745Z,20.80
2018-03-27T10:35:41.584Z,21.40
2018-03-27T10:38:10.259Z,21.90
2018-03-27T10:40:38.594Z,21.50
2018-03-27T10:43:06.206Z,21.50
2018-03-27T10:45:33.837Z,21.30
2018-03-27T10:48:01.422Z,20.90
2018-03-27T10:50:29.002Z,20.00
2018-03-27T10:52:56.583Z,19.20
2018-03-27T10:55:24.980Z,17.70
2018-03-27T10:57:53.501Z,17.60
2018-03-27T11:00:21.177Z,18.00
2018-03-27T11:02:48.757Z,17.90
2018-03-27T11:05:16.317Z,17.00
2018-03-27T11:07:45.943Z,16.90
2018-03-27T11:10:13.720Z,17.10
2018-03-27T11:12:41.644Z,17.80
2018-03-27T11:15:10.330Z,18.40
2018-03-27T11:17:37.878Z,19.30
2018-03-27T11:20:05.516Z,20.30
2018-03-27T11:22:33.235Z,20.60
2018-03-27T11:25:00.800Z,20.20
2018-03-27T11:27:28.445Z,19.10
2018-03-27T11:29:56.069Z,18.00
2018-03-27T11:32:23.790Z,17.20
2018-03-27T11:34:51.500Z,16.60
2018-03-27T11:37:19.972Z,15.50
2018-03-27T11:39:49.286Z,14.80
2018-03-27T11:42:18.058Z,14.80
2018-03-27T11:44:45.649Z,14.50
2018-03-27T11:47:14.761Z,13.70
2018-03-27T11:49:42.747Z,13.50
2018-03-27T11:52:11.656Z,13.30
2018-03-27T11:54:40.431Z,13.20
2018-03-27T11:57:07.963Z,13.20
2018-03-27T11:59:36.331Z,13.20
2018-03-27T12:02:04.714Z,13.10
2018-03-27T12:04:33.631Z,13.10
2018-03-27T12:07:01.211Z,13.00
2018-03-27T12:09:30.707Z,13.00
2018-03-27T12:11:59.039Z,12.90
2018-03-27T12:14:26.609Z,12.80
2018-03-27T12:16:55.946Z,12.70
2018-03-27T12:19:23.523Z,12.70
2018-03-27T12:21:51.971Z,12.60
2018-03-27T12:24:19.580Z,12.50
2018-03-27T12:26:47.143Z,12.60
2018-03-27T12:29:14.692Z,12.60
2018-03-27T12:31:44.063Z,12.60
2018-03-27T12:34:12.361Z,12.70
2018-03-27T12:36:39.913Z,12.80
2018-03-27T12:39:08.312Z,12.60
2018-03-27T12:41:35.864Z,12.60
2018-03-27T12:44:03.546Z,12.80
2018-03-27T12:46:32.176Z,13.00
2018-03-27T12:48:59.785Z,13.00
2018-03-27T12:51:28.204Z,13.40
2018-03-27T12:53:55.847Z,13.50
2018-03-27T12:56:23.440Z,13.30
2018-03-27T12:58:51.193Z,13.40
2018-03-27T13:01:18.830Z,13.40
2018-03-27T13:03:47.194Z,13.10
2018-03-27T13:06:15.793Z,13.00
2018-03-27T13:08:43.790Z,13.00
2018-03-27T13:11:12.639Z,11.90
2018-03-27T13:13:41.706Z,12.00
2018-03-27T13:16:10.425Z,11.80
2018-03-27T13:18:38.015Z,11.70
2018-03-27T13:21:06.653Z,11.70
2018-03-27T13:23:34.303Z,11.80
2018-03-27T13:26:01.807Z,11.90
2018-03-27T13:28:30.523Z,12.10
2018-03-27T13:30:59.832Z,11.90
2018-03-27T13:33:27.418Z,11.90
2018-03-27T13:35:55.790Z,11.70
2018-03-27T13:38:23.428Z,11.50
2018-03-27T13:40:51.018Z,11.30
2018-03-27T13:43:19.008Z,11.10
2018-03-27T13:45:47.357Z,11.00
2018-03-27T13:48:15.747Z,11.00
2018-03-27T13:50:44.042Z,11.00
2018-03-27T13:53:12.824Z,11.00
2018-03-27T13:55:42.460Z,11.00
2018-03-27T13:58:12.607Z,11.00
2018-03-27T14:00:40.286Z,11.00
2018-03-27T14:03:07.889Z,10.90
2018-03-27T14:05:35.529Z,10.80
2018-03-27T14:08:03.116Z,11.00
2018-03-27T14:10:30.732Z,10.80
2018-03-27T14:12:59.820Z,10.90
2018-03-27T14:15:28.177Z,11.00
2018-03-27T14:17:55.928Z,11.00
2018-03-27T14:20:24.405Z,11.00
2018-03-27T14:22:52.723Z,11.40
2018-03-27T14:25:20.354Z,11.30
2018-03-27T14:27:47.975Z,11.20
2018-03-27T14:30:16.527Z,11.40
2018-03-27T14:32:45.233Z,11.40
2018-03-27T14:35:13.945Z,11.60
2018-03-27T14:37:42.265Z,11.60
2018-03-27T14:40:11.623Z,11.80
2018-03-27T14:42:39.245Z,11.80
2018-03-27T14:45:06.835Z,11.90
2018-03-27T14:47:34.414Z,11.90
2018-03-27T14:50:02.727Z,11.90
2018-03-27T14:52:30.331Z,11.90
2018-03-27T14:54:57.927Z,12.00
2018-03-27T14:57:25.529Z,12.10
2018-03-27T14:59:54.276Z,12.20
2018-03-27T15:02:22.782Z,12.10
2018-03-27T15:04:50.431Z,12.10
2018-03-27T15:07:19.521Z,11.80
2018-03-27T15:09:47.157Z,11.70
2018-03-27T15:12:14.803Z,11.50
2018-03-27T15:14:43.122Z,11.40
2018-03-27T15:17:12.222Z,11.30
2018-03-27T15:19:39.793Z,11.20
2018-03-27T15:22:08.560Z,11.10
2018-03-27T15:24:38.114Z,11.10
2018-03-27T15:27:06.748Z,10.90
2018-03-27T15:29:34.403Z,11.10
2018-03-27T15:32:02.027Z,11.00
2018-03-27T15:34:31.282Z,10.90
2018-03-27T15:36:58.941Z,10.90
2018-03-27T15:39:26.551Z,11.10
2018-03-27T15:41:55.111Z,11.40
2018-03-27T15:44:22.692Z,11.30
2018-03-27T15:46:50.345Z,11.40
2018-03-27T15:49:19.143Z,11.60
2018-03-27T15:51:46.862Z,11.60
2018-03-27T15:54:14.508Z,11.60
2018-03-27T15:56:43.007Z,11.60
2018-03-27T15:59:10.702Z,11.60
2018-03-27T16:01:40.174Z,11.40
2018-03-27T16:04:07.803Z,11.30
2018-03-27T16:06:35.412Z,11.20
2018-03-27T16:09:03.159Z,11.00
2018-03-27T16:11:30.774Z,10.90
2018-03-27T16:13:58.361Z,10.70
2018-03-27T16:16:26.089Z,10.70
2018-03-27T16:18:54.665Z,10.60
2018-03-27T16:21:24.441Z,10.40
2018-03-27T16:23:52.034Z,10.40
2018-03-27T16:26:19.639Z,10.40
2018-03-27T16:28:47.564Z,10.40
2018-03-27T16:31:15.195Z,10.40
2018-03-27T16:33:43.619Z,10.40
2018-03-27T16:36:11.658Z,10.40
2018-03-27T16:38:39.249Z,10.40
2018-03-27T16:41:06.853Z,10.40
2018-03-27T16:43:34.682Z,10.40
2018-03-27T16:46:02.838Z,10.40
2018-03-27T16:48:32.450Z,10.50
2018-03-27T16:51:00.364Z,10.40
2018-03-27T16:53:27.968Z,10.30
2018-03-27T16:55:56.343Z,10.30
2018-03-27T16:58:24.025Z,10.40
2018-03-27T17:00:51.583Z,10.30
2018-03-27T17:03:20.145Z,10.30
2018-03-27T17:05:47.741Z,10.30
2018-03-27T17:08:15.392Z,10.20
2018-03-27T17:10:44.008Z,10.10
2018-03-27T17:13:12.672Z,10.00
2018-03-27T17:15:41.566Z,10.00
2018-03-27T17:18:14.146Z,9.90
2018-03-27T17:20:42.779Z,9.90
2018-03-27T17:23:14.594Z,9.90
2018-03-27T17:25:42.617Z,9.90
2018-03-27T17:28:10.276Z,9.80
2018-03-27T17:30:37.856Z,9.70
2018-03-27T17:33:05.465Z,9.60
2018-03-27T17:35:33.047Z,9.60
2018-03-27T17:38:01.474Z,9.50
2018-03-27T17:40:30.363Z,9.30
2018-03-27T17:42:57.918Z,9.10
2018-03-27T17:45:26.717Z,9.00
2018-03-27T17:47:54.955Z,8.80
2018-03-27T17:50:23.634Z,8.80
2018-03-27T17:52:51.137Z,8.70
2018-03-27T17:55:18.718Z,8.60
2018-03-27T17:57:47.255Z,8.40
2018-03-27T18:00:15.832Z,8.30
2018-03-27T18:02:44.753Z,8.30
2018-03-27T18:05:13.104Z,8.30
2018-03-27T18:07:40.665Z,8.20
2018-03-27T18:10:08.409Z,8.30
2018-03-27T18:12:36.053Z,8.20
2018-03-27T18:15:03.651Z,8.10
2018-03-27T18:17:32.536Z,8.00
2018-03-27T18:20:00.943Z,8.10
2018-03-27T18:22:29.381Z,8.10
2018-03-27T18:24:57.777Z,8.10
2018-03-27T18:27:26.126Z,8.00
2018-03-27T18:29:54.756Z,8.00
2018-03-27T18:32:22.448Z,8.00
2018-03-27T18:34:50.015Z,8.00
2018-03-27T18:37:19.759Z,8.00
2018-03-27T18:39:48.123Z,8.00
2018-03-27T18:42:16.479Z,8.00
2018-03-27T18:44:45.033Z,8.00
2018-03-27T18:47:14.739Z,7.90
2018-03-27T18:49:42.771Z,7.90
2018-03-27T18:52:11.608Z,7.80
2018-03-27T18:54:40.158Z,7.70
2018-03-27T18:57:08.473Z,7.60
2018-03-27T18:59:36.100Z,7.60
2018-03-27T19:02:03.682Z,7.60
2018-03-27T19:04:31.315Z,7.60
2018-03-27T19:06:59.834Z,7.60
2018-03-27T19:09:27.400Z,7.40
2018-03-27T19:11:55.171Z,7.40
2018-03-27T19:14:22.803Z,7.40
2018-03-27T19:16:50.478Z,7.40
2018-03-27T19:19:18.791Z,7.40
2018-03-27T19:21:47.611Z,7.40
2018-03-27T19:24:16.151Z,7.40
2018-03-27T19:26:44.490Z,7.30
2018-03-27T19:29:12.895Z,7.30
2018-03-27T19:31:40.465Z,7.20
2018-03-27T19:34:08.059Z,7.20
2018-03-27T19:36:35.838Z,7.10
2018-03-27T19:39:03.461Z,7.10
2018-03-27T19:41:31.051Z,7.00
2018-03-27T19:43:59.591Z,6.90
2018-03-27T19:46:27.919Z,6.90
2018-03-27T19:48:55.487Z,6.80
2018-03-27T19:51:23.110Z,6.80
2018-03-27T19:53:50.695Z,6.80
2018-03-27T19:56:18.287Z,6.70
2018-03-27T19:58:46.641Z,6.70
2018-03-27T20:01:14.991Z,6.70
2018-03-27T20:03:43.561Z,6.70
2018-03-27T20:06:13.500Z,6.70
2018-03-27T20:08:41.760Z,6.70
2018-03-27T20:11:10.204Z,6.70
2018-03-27T20:13:38.628Z,6.90
2018-03-27T20:16:07.085Z,6.90
2018-03-27T20:18:35.293Z,6.90
2018-03-27T20:21:02.888Z,6.70
2018-03-27T20:23:31.249Z,6.90
2018-03-27T20:25:59.923Z,6.80
2018-03-27T20:28:28.260Z,6.90
2018-03-27T20:30:55.910Z,6.90
2018-03-27T20:33:23.963Z,6.90
2018-03-27T20:35:51.544Z,7.00
2018-03-27T20:38:19.090Z,7.00
2018-03-27T20:40:46.699Z,6.90
2018-03-27T20:43:14.268Z,7.00
2018-03-27T20:45:42.718Z,7.10
2018-03-27T20:48:12.560Z,7.30
2018-03-27T20:50:40.126Z,7.20
2018-03-27T20:53:07.696Z,7.20
2018-03-27T20:55:36.275Z,7.40
2018-03-27T20:58:03.860Z,7.30
2018-03-27T21:00:31.482Z,7.40
2018-03-27T21:02:59.161Z,7.50
2018-03-27T21:05:26.800Z,7.60
2018-03-27T21:07:54.400Z,7.70
2018-03-27T21:10:22.992Z,7.60
2018-03-27T21:12:50.558Z,7.90
2018-03-27T21:15:19.037Z,8.00
2018-03-27T21:17:47.029Z,8.10
2018-03-27T21:20:15.367Z,8.20
2018-03-27T21:22:44.650Z,8.30
2018-03-27T21:25:12.776Z,8.30
2018-03-27T21:27:40.365Z,8.20
2018-03-27T21:30:07.915Z,8.30
2018-03-27T21:32:36.466Z,8.30
2018-03-27T21:35:04.057Z,8.20
2018-03-27T21:37:31.638Z,8.40
2018-03-27T21:39:59.208Z,8.40
2018-03-27T21:42:27.694Z,8.40
2018-03-27T21:44:55.279Z,8.40
2018-03-27T21:47:24.062Z,8.40
2018-03-27T21:49:52.381Z,8.40
2018-03-27T21:52:19.968Z,8.40
2018-03-27T21:54:48.434Z,8.10
2018-03-27T21:57:16.774Z,8.40
2018-03-27T21:59:44.336Z,8.30
2018-03-27T22:02:14.070Z,8.30
2018-03-27T22:04:42.409Z,8.30
2018-03-27T22:07:10.305Z,8.40
2018-03-27T22:09:37.909Z,8.40
2018-03-27T22:12:05.488Z,8.40
2018-03-27T22:14:33.069Z,8.50
2018-03-27T22:17:01.791Z,8.30
2018-03-27T22:19:29.339Z,8.20
2018-03-27T22:21:56.946Z,8.20
2018-03-27T22:24:24.558Z,8.20
2018-03-27T22:26:54.787Z,8.20
2018-03-27T22:29:22.355Z,8.10
2018-03-27T22:31:50.109Z,8.10
2018-03-27T22:34:17.677Z,8.00
2018-03-27T22:36:45.243Z,8.10
2018-03-27T22:39:15.069Z,8.00
2018-03-27T22:41:43.532Z,8.00
2018-03-27T22:44:11.826Z,8.10
2018-03-27T22:46:40.194Z,7.90
2018-03-27T22:49:07.770Z,8.10
2018-03-27T22:51:35.329Z,7.90
2018-03-27T22:54:02.950Z,7.80
2018-03-27T22:56:30.611Z,7.80
2018-03-27T22:58:58.158Z,7.70
2018-03-27T23:01:26.055Z,7.70
2018-03-27T23:03:53.686Z,7.60
2018-03-27T23:06:21.317Z,7.60
2018-03-27T23:08:48.971Z,7.50
2018-03-27T23:11:17.326Z,7.20
2018-03-27T23:13:44.946Z,7.40
2018-03-27T23:16:13.463Z,7.50
2018-03-27T23:18:42.917Z,7.30
2018-03-27T23:21:10.484Z,7.30
2018-03-27T23:23:38.132Z,7.20
2018-03-27T23:26:05.731Z,7.20
2018-03-27T23:28:33.290Z,7.20
2018-03-27T23:31:01.889Z,7.20
2018-03-27T23:33:30.368Z,7.10
2018-03-27T23:35:59.433Z,7.00
2018-03-27T23:38:27.319Z,7.00
2018-03-27T23:40:55.644Z,7.10
2018-03-27T23:43:23.210Z,7.00
2018-03-27T23:45:50.812Z,6.90
2018-03-27T23:48:18.355Z,7.00
2018-03-27T23:50:45.931Z,6.90
2018-03-27T23:53:14.933Z,6.90
2018-03-27T23:55:43.506Z,6.80
2018-03-27T23:58:13.804Z,6.80
